createdAt,value
2019-01-30T00:00:39.136Z,-0.53
2019-01-30T00:01:48.826Z,-0.46
2019-01-30T00:02:58.752Z,-0.57
2019-01-30T00:04:08.714Z,-0.56
2019-01-30T00:05:18.625Z,-0.59
2019-01-30T00:06:28.310Z,-0.56
2019-01-30T00:07:38.233Z,-0.56
2019-01-30T00:08:47.916Z,-0.62
2019-01-30T00:09:57.837Z,-0.62
2019-01-30T00:11:07.530Z,-0.66
2019-01-30T00:12:17.513Z,-0.62
2019-01-30T00:13:26.948Z,-0.63
2019-01-30T00:14:36.640Z,-0.66
2019-01-30T00:15:55.663Z,-0.62
2019-01-30T00:17:06.094Z,-0.63
2019-01-30T00:18:16.034Z,-0.66
2019-01-30T00:19:25.995Z,-0.62
2019-01-30T00:20:35.948Z,-0.7
2019-01-30T00:21:45.627Z,-0.67
2019-01-30T00:22:55.566Z,-0.6
2019-01-30T00:24:05.249Z,-0.6
2019-01-30T00:25:14.935Z,-0.66
2019-01-30T00:26:24.864Z,-0.62
2019-01-30T00:27:34.806Z,-0.56
2019-01-30T00:28:44.519Z,-0.66
2019-01-30T00:30:03.498Z,-0.62
2019-01-30T00:31:13.733Z,-0.66
2019-01-30T00:32:23.415Z,-0.74
2019-01-30T00:33:33.102Z,-0.75
2019-01-30T00:34:43.065Z,-0.69
2019-01-30T00:35:52.747Z,-0.78
2019-01-30T00:37:02.702Z,-0.78
2019-01-30T00:38:12.383Z,-0.8
2019-01-30T00:39:21.829Z,-0.63
2019-01-30T00:40:31.527Z,-0.78
2019-01-30T00:41:41.222Z,-0.64
2019-01-30T00:42:50.894Z,-0.78
2019-01-30T00:44:00.836Z,-0.66
2019-01-30T00:45:10.778Z,-0.8
2019-01-30T00:46:20.214Z,-0.78
2019-01-30T00:47:30.162Z,-0.7
2019-01-30T00:48:42.575Z,-0.78
2019-01-30T00:49:52.028Z,-0.81
2019-01-30T00:51:01.952Z,-0.74
2019-01-30T00:52:11.890Z,-0.77
2019-01-30T00:53:21.836Z,-0.81
2019-01-30T00:54:36.908Z,-0.8
2019-01-30T00:55:46.597Z,-0.87
2019-01-30T00:56:56.290Z,-0.8
2019-01-30T00:58:05.480Z,-0.93
2019-01-30T00:59:15.178Z,-0.85
2019-01-30T01:00:25.118Z,-0.93
2019-01-30T01:01:34.800Z,-0.89
2019-01-30T01:02:44.492Z,-0.87
2019-01-30T01:03:54.248Z,-0.87
2019-01-30T01:05:03.934Z,-0.84
2019-01-30T01:06:13.853Z,-0.89
2019-01-30T01:07:23.802Z,-0.85
2019-01-30T01:08:33.813Z,-0.82
2019-01-30T01:09:43.751Z,-0.84
2019-01-30T01:10:53.455Z,-0.8
2019-01-30T01:12:03.384Z,-0.84
2019-01-30T01:13:14.559Z,-0.82
2019-01-30T01:14:23.908Z,-0.85
2019-01-30T01:15:33.342Z,-0.85
2019-01-30T01:16:43.019Z,-0.82
2019-01-30T01:17:53.066Z,-0.89
2019-01-30T01:19:03.010Z,-0.85
2019-01-30T01:20:12.935Z,-0.91
2019-01-30T01:21:22.664Z,-0.82
2019-01-30T01:22:32.358Z,-0.84
2019-01-30T01:23:42.300Z,-0.94
2019-01-30T01:24:51.991Z,-0.82
2019-01-30T01:26:01.660Z,-0.82
2019-01-30T01:27:11.606Z,-0.87
2019-01-30T01:28:21.289Z,-0.81
2019-01-30T01:29:30.974Z,-0.85
2019-01-30T01:30:40.904Z,-0.85
2019-01-30T01:31:50.840Z,-0.85
2019-01-30T01:33:00.528Z,-0.84
2019-01-30T01:34:10.240Z,-0.84
2019-01-30T01:35:20.172Z,-0.77
2019-01-30T01:36:29.853Z,-0.82
2019-01-30T01:37:39.782Z,-0.78
2019-01-30T01:38:49.735Z,-0.82
2019-01-30T01:39:59.662Z,-0.85
2019-01-30T01:41:09.334Z,-0.77
2019-01-30T01:42:19.115Z,-0.78
2019-01-30T01:43:29.244Z,-0.69
2019-01-30T01:44:39.236Z,-0.81
2019-01-30T01:45:49.170Z,-0.81
2019-01-30T01:46:59.140Z,-0.82
2019-01-30T01:48:08.828Z,-0.8
2019-01-30T01:49:18.780Z,-0.81
2019-01-30T01:50:28.716Z,-0.84
2019-01-30T01:51:38.157Z,-0.81
2019-01-30T01:52:47.832Z,-0.69
2019-01-30T01:53:57.496Z,-0.64
2019-01-30T01:55:07.246Z,-0.81
2019-01-30T01:56:16.685Z,-0.77
2019-01-30T01:57:26.628Z,-0.66
2019-01-30T01:58:36.557Z,-0.75
2019-01-30T01:59:46.497Z,-0.82
2019-01-30T02:00:56.172Z,-0.81
2019-01-30T02:02:06.111Z,-0.77
2019-01-30T02:03:16.025Z,-0.8
2019-01-30T02:04:25.711Z,-0.82
2019-01-30T02:05:35.637Z,-0.78
2019-01-30T02:06:45.575Z,-0.84
2019-01-30T02:07:55.495Z,-0.78
2019-01-30T02:09:05.189Z,-0.75
2019-01-30T02:10:14.867Z,-0.81
2019-01-30T02:11:24.802Z,-0.78
2019-01-30T02:12:34.755Z,-0.81
2019-01-30T02:13:44.678Z,-0.8
2019-01-30T02:14:55.071Z,-0.72
2019-01-30T02:16:04.755Z,-0.8
2019-01-30T02:17:14.439Z,-0.72
2019-01-30T02:18:24.453Z,-0.78
2019-01-30T02:19:34.386Z,-0.77
2019-01-30T02:20:44.329Z,-0.77
2019-01-30T02:21:54.258Z,-0.89
2019-01-30T02:23:04.015Z,-0.85
2019-01-30T02:24:13.955Z,-0.91
2019-01-30T02:25:23.902Z,-0.84
2019-01-30T02:26:33.583Z,-0.93
2019-01-30T02:27:43.526Z,-0.96
2019-01-30T02:28:53.457Z,-0.97
2019-01-30T02:30:03.140Z,-0.87
2019-01-30T02:31:12.851Z,-0.97
2019-01-30T02:32:22.569Z,-1.04
2019-01-30T02:33:32.008Z,-0.99
2019-01-30T02:34:41.701Z,-0.97
2019-01-30T02:35:51.637Z,-1.03
2019-01-30T02:37:01.618Z,-1.03
2019-01-30T02:38:11.561Z,-1.03
2019-01-30T02:39:20.998Z,-1
2019-01-30T02:40:30.463Z,-1.07
2019-01-30T02:41:40.395Z,-0.99
2019-01-30T02:42:50.088Z,-1.07
2019-01-30T02:44:00.049Z,-1.09
2019-01-30T02:45:09.487Z,-1.04
2019-01-30T02:46:19.455Z,-1.12
2019-01-30T02:47:29.137Z,-1.14
2019-01-30T02:48:38.830Z,-1.18
2019-01-30T02:49:48.515Z,-1.18
2019-01-30T02:50:58.460Z,-1.14
2019-01-30T02:52:08.396Z,-1.22
2019-01-30T02:53:18.339Z,-1.15
2019-01-30T02:54:28.072Z,-1.19
2019-01-30T02:55:37.770Z,-1.22
2019-01-30T02:56:47.711Z,-1.22
2019-01-30T02:57:57.647Z,-1.15
2019-01-30T02:59:07.098Z,-1.22
2019-01-30T03:00:17.038Z,-1.18
2019-01-30T03:01:26.969Z,-1.25
2019-01-30T03:02:36.915Z,-1.21
2019-01-30T03:03:46.853Z,-1.25
2019-01-30T03:04:56.941Z,-1.22
2019-01-30T03:06:06.879Z,-1.22
2019-01-30T03:07:16.677Z,-1.38
2019-01-30T03:08:26.106Z,-1.24
2019-01-30T03:09:36.037Z,-1.32
2019-01-30T03:10:45.963Z,-1.36
2019-01-30T03:11:55.908Z,-1.35
2019-01-30T03:13:05.334Z,-1.27
2019-01-30T03:14:15.275Z,-1.29
2019-01-30T03:15:24.745Z,-1.38
2019-01-30T03:16:34.670Z,-1.25
2019-01-30T03:17:44.605Z,-1.3
2019-01-30T03:18:54.537Z,-1.35
2019-01-30T03:20:04.602Z,-1.4
2019-01-30T03:21:13.803Z,-1.38
2019-01-30T03:22:23.751Z,-1.3
2019-01-30T03:23:33.677Z,-1.32
2019-01-30T03:24:43.113Z,-1.4
2019-01-30T03:25:52.795Z,-1.42
2019-01-30T03:27:02.491Z,-1.36
2019-01-30T03:28:12.421Z,-1.36
2019-01-30T03:29:22.379Z,-1.38
2019-01-30T03:30:32.096Z,-1.38
2019-01-30T03:31:42.081Z,-1.45
2019-01-30T03:32:51.853Z,-1.42
2019-01-30T03:34:01.842Z,-1.4
2019-01-30T03:35:11.784Z,-1.43
2019-01-30T03:36:21.495Z,-1.38
2019-01-30T03:37:31.420Z,-1.45
2019-01-30T03:38:41.369Z,-1.48
2019-01-30T03:39:51.304Z,-1.57
2019-01-30T03:41:00.987Z,-1.48
2019-01-30T03:42:10.685Z,-1.45
2019-01-30T03:43:20.638Z,-1.57
2019-01-30T03:44:30.563Z,-1.46
2019-01-30T03:45:40.498Z,-1.48
2019-01-30T03:46:50.416Z,-1.53
2019-01-30T03:47:59.853Z,-1.51
2019-01-30T03:49:09.798Z,-1.53
2019-01-30T03:50:19.734Z,-1.53
2019-01-30T03:51:29.433Z,-1.53
2019-01-30T03:52:39.121Z,-1.56
2019-01-30T03:53:49.071Z,-1.56
2019-01-30T03:54:58.769Z,-1.57
2019-01-30T03:56:08.808Z,-1.58
2019-01-30T03:57:18.743Z,-1.68
2019-01-30T03:58:28.462Z,-1.57
2019-01-30T03:59:37.904Z,-1.54
2019-01-30T04:00:47.859Z,-1.57
2019-01-30T04:01:57.292Z,-1.68
2019-01-30T04:03:06.995Z,-1.6
2019-01-30T04:04:16.684Z,-1.78
2019-01-30T04:05:26.642Z,-1.63
2019-01-30T04:06:36.573Z,-1.61
2019-01-30T04:07:45.760Z,-1.64
2019-01-30T04:08:55.206Z,-1.74
2019-01-30T04:10:04.638Z,-1.68
2019-01-30T04:11:14.333Z,-1.58
2019-01-30T04:12:24.024Z,-1.53
2019-01-30T04:13:33.969Z,-1.57
2019-01-30T04:14:43.670Z,-1.58
2019-01-30T04:15:53.609Z,-1.58
2019-01-30T04:17:03.535Z,-1.58
2019-01-30T04:18:12.973Z,-1.56
2019-01-30T04:19:22.753Z,-1.56
2019-01-30T04:20:32.443Z,-1.56
2019-01-30T04:21:42.371Z,-1.57
2019-01-30T04:22:52.076Z,-1.56
2019-01-30T04:24:01.753Z,-1.56
2019-01-30T04:25:11.434Z,-1.54
2019-01-30T04:26:21.109Z,-1.56
2019-01-30T04:27:31.037Z,-1.54
2019-01-30T04:28:40.713Z,-1.58
2019-01-30T04:29:50.158Z,-1.54
2019-01-30T04:31:00.150Z,-1.54
2019-01-30T04:32:09.858Z,-1.58
2019-01-30T04:33:19.798Z,-1.53
2019-01-30T04:34:29.518Z,-1.56
2019-01-30T04:35:39.482Z,-1.58
2019-01-30T04:36:49.165Z,-1.58
2019-01-30T04:37:58.875Z,-1.56
2019-01-30T04:39:08.815Z,-1.54
2019-01-30T04:40:18.508Z,-1.58
2019-01-30T04:41:28.448Z,-1.51
2019-01-30T04:42:38.414Z,-1.57
2019-01-30T04:43:48.364Z,-1.56
2019-01-30T04:44:58.423Z,-1.56
2019-01-30T04:46:08.384Z,-1.56
2019-01-30T04:47:18.324Z,-1.58
2019-01-30T04:48:28.003Z,-1.61
2019-01-30T04:49:37.940Z,-1.6
2019-01-30T04:50:47.874Z,-1.63
2019-01-30T04:51:57.619Z,-1.57
2019-01-30T04:53:07.564Z,-1.56
2019-01-30T04:54:17.243Z,-1.54
2019-01-30T04:55:26.690Z,-1.58
2019-01-30T04:56:36.388Z,-1.53
2019-01-30T04:57:46.346Z,-1.6
2019-01-30T04:58:56.296Z,-1.63
2019-01-30T05:00:05.994Z,-1.53
2019-01-30T05:01:15.911Z,-1.56
2019-01-30T05:02:25.090Z,-1.66
2019-01-30T05:03:34.784Z,-1.63
2019-01-30T05:04:44.723Z,-1.53
2019-01-30T05:05:54.415Z,-1.57
2019-01-30T05:07:04.359Z,-1.64
2019-01-30T05:08:13.808Z,-1.58
2019-01-30T05:09:23.748Z,-1.58
2019-01-30T05:10:33.696Z,-1.66
2019-01-30T05:11:43.671Z,-1.63
2019-01-30T05:12:53.351Z,-1.72
2019-01-30T05:14:03.957Z,-1.61
2019-01-30T05:15:13.749Z,-1.69
2019-01-30T05:16:23.930Z,-1.57
2019-01-30T05:17:33.862Z,-1.54
2019-01-30T05:18:43.798Z,-1.5
2019-01-30T05:19:53.749Z,-1.54
2019-01-30T05:21:03.689Z,-1.61
2019-01-30T05:22:13.628Z,-1.5
2019-01-30T05:23:23.326Z,-1.48
2019-01-30T05:24:33.258Z,-1.54
2019-01-30T05:25:42.974Z,-1.43
2019-01-30T05:26:52.910Z,-1.51
2019-01-30T05:28:03.062Z,-1.57
2019-01-30T05:29:13.009Z,-1.53
2019-01-30T05:30:22.454Z,-1.51
2019-01-30T05:31:32.413Z,-1.43
2019-01-30T05:32:41.854Z,-1.48
2019-01-30T05:33:51.288Z,-1.56
2019-01-30T05:35:01.276Z,-1.48
2019-01-30T05:36:10.950Z,-1.56
2019-01-30T05:37:20.892Z,-1.5
2019-01-30T05:38:30.835Z,-1.54
2019-01-30T05:39:40.777Z,-1.57
2019-01-30T05:40:50.471Z,-1.51
2019-01-30T05:42:00.160Z,-1.56
2019-01-30T05:43:09.844Z,-1.5
2019-01-30T05:44:19.530Z,-1.58
2019-01-30T05:45:29.477Z,-1.6
2019-01-30T05:46:39.186Z,-1.53
2019-01-30T05:47:48.867Z,-1.54
2019-01-30T05:48:58.853Z,-1.48
2019-01-30T05:50:08.799Z,-1.53
2019-01-30T05:51:18.739Z,-1.4
2019-01-30T05:52:28.415Z,-1.5
2019-01-30T05:53:38.349Z,-1.45
2019-01-30T05:54:47.780Z,-1.56
2019-01-30T05:55:57.473Z,-1.5
2019-01-30T05:57:07.413Z,-1.51
2019-01-30T05:58:17.094Z,-1.58
2019-01-30T05:59:26.534Z,-1.57
2019-01-30T06:00:36.468Z,-1.56
2019-01-30T06:01:46.144Z,-1.54
2019-01-30T06:02:56.092Z,-1.72
2019-01-30T06:04:06.025Z,-1.6
2019-01-30T06:05:15.831Z,-1.57
2019-01-30T06:06:25.265Z,-1.6
2019-01-30T06:07:35.192Z,-1.63
2019-01-30T06:08:44.981Z,-1.58
2019-01-30T06:09:54.928Z,-1.71
2019-01-30T06:11:04.648Z,-1.61
2019-01-30T06:12:17.611Z,-1.6
2019-01-30T06:13:27.566Z,-1.72
2019-01-30T06:14:37.498Z,-1.72
2019-01-30T06:15:47.451Z,-1.64
2019-01-30T06:16:57.187Z,-1.58
2019-01-30T06:18:07.146Z,-1.69
2019-01-30T06:19:17.099Z,-1.63
2019-01-30T06:20:27.030Z,-1.74
2019-01-30T06:21:36.718Z,-1.64
2019-01-30T06:22:46.407Z,-1.58
2019-01-30T06:23:56.113Z,-1.71
2019-01-30T06:25:05.566Z,-1.76
2019-01-30T06:26:15.574Z,-1.75
2019-01-30T06:27:25.530Z,-1.79
2019-01-30T06:28:35.481Z,-1.61
2019-01-30T06:29:45.194Z,-1.69
2019-01-30T06:30:54.928Z,-1.68
2019-01-30T06:32:04.623Z,-1.69
2019-01-30T06:33:13.811Z,-1.75
2019-01-30T06:34:23.328Z,-1.68
2019-01-30T06:35:33.305Z,-1.75
2019-01-30T06:36:43.269Z,-1.74
2019-01-30T06:37:52.974Z,-1.69
2019-01-30T06:39:02.443Z,-1.71
2019-01-30T06:40:12.382Z,-1.58
2019-01-30T06:41:22.080Z,-1.75
2019-01-30T06:42:31.788Z,-1.74
2019-01-30T06:43:41.716Z,-1.72
2019-01-30T06:44:51.692Z,-1.69
2019-01-30T06:46:01.382Z,-1.69
2019-01-30T06:47:10.816Z,-1.69
2019-01-30T06:48:20.747Z,-1.61
2019-01-30T06:49:30.689Z,-1.76
2019-01-30T06:50:40.634Z,-1.66
2019-01-30T06:51:50.581Z,-1.76
2019-01-30T06:53:00.576Z,-1.6
2019-01-30T06:54:10.518Z,-1.58
2019-01-30T06:55:20.462Z,-1.74
2019-01-30T06:56:30.398Z,-1.61
2019-01-30T06:57:40.347Z,-1.69
2019-01-30T06:58:50.027Z,-1.61
2019-01-30T07:00:00.006Z,-1.58
2019-01-30T07:01:09.959Z,-1.66
2019-01-30T07:02:19.390Z,-1.63
2019-01-30T07:03:39.441Z,-1.56
2019-01-30T07:04:49.145Z,-1.57
2019-01-30T07:05:58.849Z,-1.58
2019-01-30T07:07:08.819Z,-1.53
2019-01-30T07:08:18.497Z,-1.57
2019-01-30T07:09:28.464Z,-1.54
2019-01-30T07:10:37.666Z,-1.48
2019-01-30T07:11:47.602Z,-1.56
2019-01-30T07:12:57.305Z,-1.51
2019-01-30T07:14:07.311Z,-1.53
2019-01-30T07:15:17.257Z,-1.56
2019-01-30T07:16:26.962Z,-1.58
2019-01-30T07:17:36.401Z,-1.56
2019-01-30T07:18:46.079Z,-1.45
2019-01-30T07:19:56.023Z,-1.5
2019-01-30T07:21:06.101Z,-1.43
2019-01-30T07:22:16.060Z,-1.39
2019-01-30T07:23:25.510Z,-1.39
2019-01-30T07:24:35.495Z,-1.38
2019-01-30T07:25:45.437Z,-1.35
2019-01-30T07:26:55.442Z,-1.39
2019-01-30T07:28:05.391Z,-1.3
2019-01-30T07:29:14.613Z,-1.38
2019-01-30T07:30:24.349Z,-1.22
2019-01-30T07:31:34.305Z,-1.32
2019-01-30T07:32:47.175Z,-1.25
2019-01-30T07:33:56.851Z,-1.25
2019-01-30T07:35:06.811Z,-1.21
2019-01-30T07:36:16.515Z,-1.24
2019-01-30T07:37:26.206Z,-1.07
2019-01-30T07:38:35.894Z,-1.04
2019-01-30T07:39:45.628Z,-1
2019-01-30T07:40:55.568Z,-0.97
2019-01-30T07:42:05.279Z,-1
2019-01-30T07:43:15.571Z,-0.97
2019-01-30T07:44:28.215Z,-0.97
2019-01-30T07:45:38.198Z,-1.03
2019-01-30T07:46:47.932Z,-0.93
2019-01-30T07:47:57.876Z,-0.91
2019-01-30T07:49:07.923Z,-0.87
2019-01-30T07:50:17.873Z,-0.84
2019-01-30T07:51:27.317Z,-0.78
2019-01-30T07:52:37.644Z,-0.85
2019-01-30T07:53:47.621Z,-0.77
2019-01-30T07:55:00.205Z,-0.78
2019-01-30T07:56:10.180Z,-0.72
2019-01-30T07:57:20.173Z,-0.67
2019-01-30T07:58:30.144Z,-0.69
2019-01-30T07:59:40.107Z,-0.77
2019-01-30T08:00:50.063Z,-0.72
2019-01-30T08:02:00.005Z,-0.64
2019-01-30T08:03:09.959Z,-0.59
2019-01-30T08:04:19.905Z,-0.59
2019-01-30T08:05:29.968Z,-0.56
2019-01-30T08:06:39.930Z,-0.54
2019-01-30T08:07:49.620Z,-0.42
2019-01-30T08:08:59.600Z,-0.45
2019-01-30T08:10:09.585Z,-0.36
2019-01-30T08:11:19.565Z,-0.24
2019-01-30T08:12:29.554Z,-0.28
2019-01-30T08:13:39.256Z,-0.15
2019-01-30T08:14:49.207Z,-0.06
2019-01-30T08:15:59.177Z,-0.07
2019-01-30T08:17:09.120Z,-0.06
2019-01-30T08:18:19.088Z,0
2019-01-30T08:19:29.035Z,0.06
2019-01-30T08:20:38.992Z,0.19
2019-01-30T08:21:48.696Z,0.19
2019-01-30T08:22:59.158Z,0.36
2019-01-30T08:24:09.985Z,0.36
2019-01-30T08:25:20.553Z,0.34
2019-01-30T08:26:30.994Z,0.31
2019-01-30T08:27:41.409Z,0.39
2019-01-30T08:28:52.571Z,0.44
2019-01-30T08:30:03.227Z,0.48
2019-01-30T08:31:14.148Z,0.48
2019-01-30T08:32:27.218Z,0.44
2019-01-30T08:33:36.961Z,0.52
2019-01-30T08:34:46.951Z,0.51
2019-01-30T08:35:56.663Z,0.55
2019-01-30T08:37:06.609Z,0.61
2019-01-30T08:38:16.564Z,0.7
2019-01-30T08:39:26.514Z,0.71
2019-01-30T08:40:36.202Z,0.74
2019-01-30T08:41:46.152Z,0.76
2019-01-30T08:42:57.139Z,0.91
2019-01-30T08:44:07.090Z,0.88
2019-01-30T08:45:16.808Z,0.86
2019-01-30T08:46:26.749Z,0.88
2019-01-30T08:47:36.697Z,0.99
2019-01-30T08:48:46.492Z,1.04
2019-01-30T08:49:56.429Z,1.13
2019-01-30T08:51:06.246Z,1.12
2019-01-30T08:52:16.199Z,1.36
2019-01-30T08:53:25.913Z,1.34
2019-01-30T08:54:35.864Z,1.31
2019-01-30T08:55:45.577Z,1.42
2019-01-30T08:56:57.989Z,1.45
2019-01-30T08:58:08.002Z,1.46
2019-01-30T08:59:18.021Z,1.57
2019-01-30T09:00:28.041Z,1.48
2019-01-30T09:01:38.073Z,1.32
2019-01-30T09:02:47.616Z,1.43
2019-01-30T09:03:57.576Z,1.39
2019-01-30T09:05:07.596Z,1.36
2019-01-30T09:06:17.084Z,1.42
2019-01-30T09:07:26.812Z,1.46
2019-01-30T09:08:36.905Z,1.48
2019-01-30T09:09:46.919Z,1.56
2019-01-30T09:10:56.458Z,1.58
2019-01-30T09:12:06.408Z,1.64
2019-01-30T09:13:15.893Z,1.6
2019-01-30T09:14:25.827Z,1.75
2019-01-30T09:15:35.780Z,1.85
2019-01-30T09:16:45.509Z,1.89
2019-01-30T09:17:55.209Z,1.95
2019-01-30T09:19:05.291Z,2
2019-01-30T09:20:14.996Z,2.15
2019-01-30T09:21:24.701Z,2.26
2019-01-30T09:22:34.904Z,2.44
2019-01-30T09:23:44.869Z,2.46
2019-01-30T09:24:54.898Z,2.39
2019-01-30T09:26:04.365Z,2.39
2019-01-30T09:27:14.359Z,2.33
2019-01-30T09:28:24.370Z,2.32
2019-01-30T09:29:34.329Z,2.36
2019-01-30T09:30:44.318Z,2.39
2019-01-30T09:31:54.341Z,2.37
2019-01-30T09:33:04.432Z,2.57
2019-01-30T09:34:14.493Z,2.79
2019-01-30T09:35:24.462Z,2.87
2019-01-30T09:36:34.460Z,2.77
2019-01-30T09:37:44.483Z,2.79
2019-01-30T09:38:54.376Z,2.75
2019-01-30T09:40:04.415Z,2.87
2019-01-30T09:41:14.167Z,3.06
2019-01-30T09:42:23.677Z,3.06
2019-01-30T09:43:33.802Z,3.06
2019-01-30T09:44:43.519Z,3.06
2019-01-30T09:45:53.486Z,3.03
2019-01-30T09:47:03.360Z,3.11
2019-01-30T09:48:13.417Z,3.22
2019-01-30T09:49:23.429Z,3.41
2019-01-30T09:50:34.257Z,3.49
2019-01-30T09:51:44.372Z,3.52
2019-01-30T09:52:53.944Z,3.33
2019-01-30T09:54:03.854Z,3.29
2019-01-30T09:55:13.878Z,3.08
2019-01-30T09:56:23.594Z,3.22
2019-01-30T09:57:33.537Z,3.05
2019-01-30T09:58:43.066Z,3.11
2019-01-30T09:59:53.020Z,3.19
2019-01-30T10:01:02.747Z,3.36
2019-01-30T10:02:12.461Z,3.37
2019-01-30T10:03:22.190Z,3.49
2019-01-30T10:04:41.695Z,3.49
2019-01-30T10:05:51.435Z,3.45
2019-01-30T10:07:01.402Z,3.48
2019-01-30T10:08:11.438Z,3.45
2019-01-30T10:09:21.203Z,3.36
2019-01-30T10:10:31.404Z,3.45
2019-01-30T10:11:41.144Z,3.48
2019-01-30T10:12:51.120Z,3.53
2019-01-30T10:14:01.110Z,3.49
2019-01-30T10:15:11.131Z,3.67
2019-01-30T10:16:21.110Z,3.82
2019-01-30T10:17:33.553Z,3.88
2019-01-30T10:18:43.268Z,3.91
2019-01-30T10:19:53.451Z,3.68
2019-01-30T10:21:03.231Z,3.67
2019-01-30T10:22:13.206Z,3.81
2019-01-30T10:23:23.176Z,3.82
2019-01-30T10:24:33.940Z,3.85
2019-01-30T10:25:43.730Z,3.86
2019-01-30T10:26:53.681Z,3.86
2019-01-30T10:28:03.932Z,4.04
2019-01-30T10:29:23.849Z,4.1
2019-01-30T10:30:33.556Z,4.14
2019-01-30T10:31:43.489Z,3.96
2019-01-30T10:32:53.195Z,3.88
2019-01-30T10:34:03.142Z,3.88
2019-01-30T10:35:12.898Z,3.89
2019-01-30T10:36:22.874Z,4.07
2019-01-30T10:37:32.844Z,4.49
2019-01-30T10:38:42.880Z,4.43
2019-01-30T10:39:52.939Z,4.56
2019-01-30T10:41:02.964Z,4.63
2019-01-30T10:42:12.701Z,4.64
2019-01-30T10:43:22.442Z,4.74
2019-01-30T10:44:32.147Z,4.52
2019-01-30T10:45:43.206Z,4.42
2019-01-30T10:46:53.063Z,4.45
2019-01-30T10:48:02.662Z,4.56
2019-01-30T10:49:12.617Z,4.67
2019-01-30T10:50:22.345Z,4.64
2019-01-30T10:51:32.310Z,4.74
2019-01-30T10:52:42.282Z,4.97
2019-01-30T10:53:53.047Z,5.01
2019-01-30T10:55:03.007Z,4.98
2019-01-30T10:56:12.974Z,4.98
2019-01-30T10:57:24.272Z,4.82
2019-01-30T10:58:34.223Z,4.89
2019-01-30T10:59:44.183Z,4.82
2019-01-30T11:00:53.998Z,4.71
2019-01-30T11:02:03.687Z,4.83
2019-01-30T11:03:13.628Z,4.79
2019-01-30T11:04:23.634Z,4.79
2019-01-30T11:05:33.575Z,4.71
2019-01-30T11:06:43.529Z,4.56
2019-01-30T11:07:53.508Z,4.46
2019-01-30T11:09:03.225Z,4.4
2019-01-30T11:10:13.192Z,4.38
2019-01-30T11:11:22.896Z,4.42
2019-01-30T11:12:32.615Z,4.4
2019-01-30T11:13:42.573Z,4.5
2019-01-30T11:14:52.276Z,4.46
2019-01-30T11:16:03.787Z,4.46
2019-01-30T11:17:13.780Z,4.45
2019-01-30T11:18:23.742Z,4.45
2019-01-30T11:19:33.686Z,4.4
2019-01-30T11:20:43.652Z,4.46
2019-01-30T11:21:53.616Z,4.57
2019-01-30T11:23:03.565Z,4.5
2019-01-30T11:24:13.536Z,4.63
2019-01-30T11:25:23.478Z,4.6
2019-01-30T11:26:33.442Z,4.56
2019-01-30T11:27:44.212Z,4.6
2019-01-30T11:28:54.162Z,4.6
2019-01-30T11:30:03.623Z,4.34
2019-01-30T11:31:13.579Z,4.18
2019-01-30T11:32:23.293Z,4.03
2019-01-30T11:33:33.258Z,4.03
2019-01-30T11:34:43.206Z,4.03
2019-01-30T11:35:53.159Z,4.2
2019-01-30T11:37:04.865Z,4.38
2019-01-30T11:38:15.073Z,4.4
2019-01-30T11:39:25.029Z,4.36
2019-01-30T11:40:34.732Z,4.25
2019-01-30T11:41:44.691Z,4.02
2019-01-30T11:42:53.629Z,3.96
2019-01-30T11:44:03.604Z,4.12
2019-01-30T11:45:13.574Z,4
2019-01-30T11:46:23.518Z,4.04
2019-01-30T11:47:32.974Z,4.03
2019-01-30T11:48:42.941Z,4.06
2019-01-30T11:50:01.699Z,4.13
2019-01-30T11:51:11.650Z,3.96
2019-01-30T11:52:21.582Z,3.99
2019-01-30T11:53:31.370Z,3.96
2019-01-30T11:54:43.867Z,4.02
2019-01-30T11:55:53.593Z,4.04
2019-01-30T11:57:03.545Z,4.18
2019-01-30T11:58:13.500Z,4.24
2019-01-30T11:59:23.459Z,4.46
2019-01-30T12:00:33.433Z,4.5
2019-01-30T12:01:43.629Z,4.46
2019-01-30T12:02:53.374Z,4.53
2019-01-30T12:04:03.358Z,4.49
2019-01-30T12:05:22.894Z,4.49
2019-01-30T12:06:32.620Z,4.67
2019-01-30T12:07:42.586Z,4.64
2019-01-30T12:08:52.528Z,4.5
2019-01-30T12:10:02.233Z,4.43
2019-01-30T12:11:11.965Z,4.4
2019-01-30T12:12:21.663Z,4.28
2019-01-30T12:13:31.617Z,4.25
2019-01-30T12:14:41.556Z,4.13
2019-01-30T12:15:51.503Z,4.18
2019-01-30T12:17:01.700Z,4.16
2019-01-30T12:18:11.433Z,4.13
2019-01-30T12:19:21.408Z,4.12
2019-01-30T12:20:31.591Z,3.99
2019-01-30T12:21:41.556Z,4.12
2019-01-30T12:22:51.256Z,4.13
2019-01-30T12:24:01.213Z,4.4
2019-01-30T12:25:11.225Z,4.42
2019-01-30T12:26:21.206Z,4.34
2019-01-30T12:27:30.948Z,4.18
2019-01-30T12:28:40.645Z,4.02
2019-01-30T12:29:50.334Z,4.02
2019-01-30T12:31:00.303Z,4.03
2019-01-30T12:32:09.995Z,4.02
2019-01-30T12:33:19.692Z,4.06
2019-01-30T12:34:33.076Z,4.14
2019-01-30T12:35:42.529Z,4
2019-01-30T12:36:52.242Z,4.07
2019-01-30T12:38:02.203Z,3.94
2019-01-30T12:39:12.151Z,3.84
2019-01-30T12:40:21.841Z,3.91
2019-01-30T12:41:31.813Z,3.88
2019-01-30T12:42:43.431Z,3.82
2019-01-30T12:43:53.399Z,3.82
2019-01-30T12:45:03.114Z,3.68
2019-01-30T12:46:13.069Z,3.67
2019-01-30T12:47:25.009Z,3.71
2019-01-30T12:48:34.975Z,3.81
2019-01-30T12:49:44.683Z,3.71
2019-01-30T12:50:54.389Z,3.78
2019-01-30T12:52:04.101Z,3.68
2019-01-30T12:53:14.036Z,3.66
2019-01-30T12:54:23.736Z,3.68
2019-01-30T12:55:34.420Z,3.7
2019-01-30T12:56:44.394Z,3.66
2019-01-30T12:57:54.089Z,3.7
2019-01-30T12:59:03.797Z,3.88
2019-01-30T13:00:13.499Z,3.78
2019-01-30T13:01:22.959Z,3.71
2019-01-30T13:02:32.924Z,3.71
2019-01-30T13:03:42.867Z,3.68
2019-01-30T13:04:52.567Z,3.61
2019-01-30T13:06:02.539Z,3.61
2019-01-30T13:07:12.500Z,3.56
2019-01-30T13:08:21.999Z,3.64
2019-01-30T13:09:33.379Z,3.68
2019-01-30T13:10:43.324Z,3.68
2019-01-30T13:11:52.779Z,3.73
2019-01-30T13:13:02.731Z,3.73
2019-01-30T13:14:12.711Z,3.7
2019-01-30T13:15:22.443Z,3.64
2019-01-30T13:16:32.392Z,3.7
2019-01-30T13:17:41.841Z,3.61
2019-01-30T13:18:54.329Z,3.64
2019-01-30T13:20:04.027Z,3.66
2019-01-30T13:21:13.985Z,3.66
2019-01-30T13:22:23.926Z,3.66
2019-01-30T13:23:33.889Z,3.67
2019-01-30T13:24:43.599Z,3.61
2019-01-30T13:25:53.560Z,3.52
2019-01-30T13:27:03.537Z,3.5
2019-01-30T13:28:13.257Z,3.49
2019-01-30T13:29:23.217Z,3.49
2019-01-30T13:30:33.195Z,3.45
2019-01-30T13:31:43.147Z,3.34
2019-01-30T13:32:53.154Z,3.43
2019-01-30T13:34:02.597Z,3.4
2019-01-30T13:35:12.319Z,3.46
2019-01-30T13:36:22.259Z,3.48
2019-01-30T13:37:32.465Z,3.36
2019-01-30T13:38:42.705Z,3.31
2019-01-30T13:39:52.485Z,3.29
2019-01-30T13:41:02.647Z,3.26
2019-01-30T13:42:12.819Z,3.31
2019-01-30T13:43:21.915Z,3.45
2019-01-30T13:44:31.881Z,3.41
2019-01-30T13:45:41.843Z,3.41
2019-01-30T13:46:51.797Z,3.37
2019-01-30T13:48:01.518Z,3.31
2019-01-30T13:49:11.285Z,3.33
2019-01-30T13:50:20.833Z,3.31
2019-01-30T13:51:30.528Z,3.4
2019-01-30T13:52:40.532Z,3.33
2019-01-30T13:53:50.560Z,3.29
2019-01-30T13:55:00.607Z,3.36
2019-01-30T13:56:10.332Z,3.31
2019-01-30T13:57:20.378Z,3.3
2019-01-30T13:58:30.142Z,3.21
2019-01-30T13:59:39.444Z,3.09
2019-01-30T14:00:49.215Z,3.06
2019-01-30T14:01:59.256Z,3.13
2019-01-30T14:03:09.386Z,3.13
2019-01-30T14:04:18.869Z,3.06
2019-01-30T14:05:28.637Z,3.09
2019-01-30T14:06:38.687Z,3.09
2019-01-30T14:07:48.175Z,3.18
2019-01-30T14:08:58.201Z,3.21
2019-01-30T14:10:08.278Z,3.26
2019-01-30T14:11:18.024Z,3.22
2019-01-30T14:12:28.037Z,3.18
2019-01-30T14:13:37.974Z,3.22
2019-01-30T14:14:47.582Z,3.19
2019-01-30T14:15:57.661Z,3.16
2019-01-30T14:17:07.795Z,3.22
2019-01-30T14:18:17.298Z,3.21
2019-01-30T14:19:27.041Z,3.26
2019-01-30T14:20:36.739Z,3.22
2019-01-30T14:21:46.768Z,3.36
2019-01-30T14:22:56.841Z,3.3
2019-01-30T14:24:06.612Z,3.29
2019-01-30T14:25:16.457Z,3.3
2019-01-30T14:26:25.952Z,3.26
2019-01-30T14:27:35.931Z,3.16
2019-01-30T14:28:45.930Z,3.19
2019-01-30T14:30:03.210Z,3.16
2019-01-30T14:31:13.043Z,3.08
2019-01-30T14:32:22.793Z,3.06
2019-01-30T14:33:32.816Z,3.15
2019-01-30T14:34:42.882Z,3.11
2019-01-30T14:35:52.618Z,3.15
2019-01-30T14:37:03.015Z,3.05
2019-01-30T14:38:13.050Z,3.06
2019-01-30T14:39:22.790Z,3.06
2019-01-30T14:40:32.745Z,3.03
2019-01-30T14:41:42.810Z,3.06
2019-01-30T14:42:52.855Z,2.93
2019-01-30T14:44:03.106Z,2.93
2019-01-30T14:45:13.088Z,2.94
2019-01-30T14:46:23.067Z,2.95
2019-01-30T14:47:33.194Z,2.91
2019-01-30T14:48:43.264Z,2.93
2019-01-30T14:49:53.284Z,2.82
2019-01-30T14:51:03.068Z,2.88
2019-01-30T14:52:13.188Z,2.85
2019-01-30T14:53:24.293Z,2.8
2019-01-30T14:54:34.285Z,2.82
2019-01-30T14:55:44.292Z,2.87
2019-01-30T14:56:54.026Z,2.82
2019-01-30T14:58:04.083Z,2.91
2019-01-30T14:59:13.912Z,2.77
2019-01-30T15:00:23.930Z,2.77
2019-01-30T15:01:33.903Z,2.8
2019-01-30T15:02:44.001Z,2.73
2019-01-30T15:03:53.992Z,2.72
2019-01-30T15:05:04.058Z,2.76
2019-01-30T15:06:14.050Z,2.72
2019-01-30T15:07:33.811Z,2.7
2019-01-30T15:08:44.182Z,2.64
2019-01-30T15:09:54.227Z,2.69
2019-01-30T15:11:03.969Z,2.72
2019-01-30T15:12:14.129Z,2.68
2019-01-30T15:13:24.106Z,2.59
2019-01-30T15:14:33.917Z,2.59
2019-01-30T15:15:46.654Z,2.57
2019-01-30T15:16:56.713Z,2.57
2019-01-30T15:18:06.762Z,2.52
2019-01-30T15:19:16.759Z,2.51